Accueil
METAR-TAF:

METAR-TAF

Aéroports :

Lugano, Suisse

Aéroport de Lugano

latitude: 46-00N, longitude: 008-58E, altitude: 273 m

Observation

Le bulletin a été fait il y a 27 minutes, à 21:20 UTC
Vent 5 kt de sud/sud-ouest, variant entre sud-est et sud-ouest
Température 15°C
Humidité 67%
Pression 1018 hPa
Visibilité 10 km ou plus
Nuages fragmentés à une hauteur de 5000 ft
Nuages épars à une hauteur de 7000 ft

METAR: LSZA 232120Z AUTO 20005KT 130V220 9999 BKN050 SCT070 15/09 Q1018

Heure: 23:47 (21:47 UTC)

Prévision

Le bulletin a été fait il y a 7 heures et 22 minutes, à 14:25 UTC
Prévision valable du 23 à 15 UTC au 23 à 24 UTC
Vent 10 kt de sud
Visibilité 10 km ou plus
Quelques nuages à une hauteur de 6000 ft
Evoluant progressivement
du 23 à 17 UTC au 23 à 19 UTC
Vent 3 kt de direction variable

TAF: LSZA 231425Z 2315/2324 19010KT 9999 FEW060 BECMG 2317/2319 VRB03KT

Observations et prévisions météorologiques de plus de 4000 aéroports (messages METAR et TAF).

Les stations disponibles sont représentées par des disques jaunes et rouges sur la carte.

Passer la souris dessus pour voir le nom de la station.

Cliquer dessus pour voir les observations et prévisions météorologiques.

Pour changer de carte: cliquez sur les boutons verts avec une croix noire pour zoomer, sur le bouton vert avec un tiret pour effectuer un zoom arrière, ou sur les flèches vertes pour les cartes adjacentes.


METAR-TAF: